Airfield :
LOGIN :

Register | Disclaimer

   EN    FR    IT 

 










Legend :    VFR   Marginal VFR   IFR   Intensive IFR   Very Intensive IFR
Visi :
Ceiling :
>= 8 km
>= 3000ft
5 to 8 km
1000 to 3000 ft
1500m to 5 km
500 to 1000 ft
800 to 1500m
200 to 500 ft
< 800m
< 200 ft
Symbols :   Thunderstorms  Fog  Heavy snow  Heavy precipitations  Wind > 20 kt
SIGMETs :     Misc.  Thunderstorms  Icing  Turbulence  Mountain Waves  Volcanic Ashes






- Airport Elevation : -15 ft
- IATA code : RTM


EHRD - Rotterdam Zestienhoven

CURRENT METAR :
  • 011255Z AUTO 27010KT 230V320 9999 SCT022 BKN027 BKN038 20/14 Q1009 NOSIG

EXPIRED METARs :
  • 011225Z AUTO 29010KT 240V360 9999 FEW022 SCT027 19/15 Q1009 NOSIG
  • 011155Z AUTO 29009KT 240V350 9999 NSC 19/14 Q1009 NOSIG
  • 011125Z AUTO 28011KT 240V330 9999 FEW023 19/14 Q1009 NOSIG
  • 011055Z AUTO 28010KT 250V320 9999 FEW019 SCT041 BKN045 19/15 Q1009 NOSIG
  • 011025Z AUTO 29009KT 240V340 9999 FEW019 SCT025 BKN044 19/15 Q1009 NOSIG

TAF TAF EHRD
Valid from the 01 at 12:00 until the 02 at 18:00 UTC


011113Z 0112/0218 31008KT 9999 SCT025
BECMG 0118/0121 29005KT
BECMG 0215/0218 33008KT



MET'MAP, your aeronautical weather chart ! - Copyright ORBIFLY December 2007 - Disclaimer

ORBIFLY MET'MAP TEAM :

Programming & Development : Alexandra Zaïnal
Concept & original design : Baudouin d'Aumeries
Assistance for programming : Marc-Olivier Méhu
Technical & hardware support : Manuel Goepfert

Contact : metmap@orbifly.com




SOURCES & CREDITS :

   NOAA